Time;durP1;ratioP1;P1;durP2;ratioP2;P2;SDS_P1;SDS_P2;PMS_P1;PMS_P2;Temp;Humidity;BMP_temperature;BMP_pressure;BME280_temperature;BME280_humidity;BME280_pressure;Samples;Min_cycle;Max_cycle;Signal;HPM_P1;HPM_P2
2022/12/08 00:01:40;;;;;;;0.10;0.10;;;3.10;99.90;1.80;96244.00;;;;5078459;28;20189;-74
2022/12/08 00:04:09;;;;;;;0.10;0.10;;;3.10;99.90;1.70;96071.00;;;;5076973;28;20788;-74
2022/12/08 00:09:31;;;;;;;0.10;0.10;;;3.20;99.90;1.90;96254.00;;;;5071584;28;20677;-74
2022/12/08 00:12:09;;;;;;;0.10;0.10;;;3.20;99.90;1.80;96233.00;;;;5071531;28;20256;-75
2022/12/08 00:14:40;;;;;;;0.10;0.10;;;3.10;99.90;1.80;96237.00;;;;5077293;28;20632;-75
2022/12/08 00:17:11;;;;;;;0.10;0.10;;;3.10;99.90;1.60;95927.00;;;;5077775;28;20193;-75
2022/12/08 00:19:41;;;;;;;0.10;0.10;;;3.10;99.90;1.60;95961.00;;;;5062061;28;20236;-74
2022/12/08 00:22:13;;;;;;;0.10;0.10;;;3.10;99.90;1.70;96177.00;;;;5077621;28;20202;-75
2022/12/08 00:24:44;;;;;;;0.10;0.10;;;3.00;99.90;1.80;96242.00;;;;5077920;28;20566;-73
2022/12/08 00:27:16;;;;;;;0.10;0.10;;;3.10;99.90;1.70;96248.00;;;;5077310;28;20668;-72
2022/12/08 00:29:45;;;;;;;0.10;0.10;;;3.00;99.90;1.70;96240.00;;;;5075845;28;20224;-73
2022/12/08 00:32:14;;;;;;;0.10;0.10;;;3.00;99.90;1.70;96239.00;;;;5076985;28;20275;-74
2022/12/08 00:34:42;;;;;;;0.10;0.10;;;3.00;99.90;1.50;95950.00;;;;5076999;28;20222;-73
2022/12/08 00:37:11;;;;;;;0.10;0.10;;;3.00;99.90;1.70;96234.00;;;;5077131;28;20259;-73
2022/12/08 00:39:40;;;;;;;0.10;0.10;;;3.00;99.90;1.70;96232.00;;;;5076601;28;20189;-73
2022/12/08 00:42:12;;;;;;;0.10;0.10;;;3.00;99.90;1.70;96244.00;;;;5076733;28;20198;-75
2022/12/08 00:44:41;;;;;;;0.10;0.10;;;3.10;99.90;1.70;96250.00;;;;5076395;28;20693;-74
2022/12/08 00:47:09;;;;;;;0.10;0.10;;;3.10;99.90;1.80;96247.00;;;;5076861;28;20198;-73
2022/12/08 00:49:37;;;;;;;0.10;0.10;;;3.10;99.90;1.80;96236.00;;;;5058519;28;20194;-75
2022/12/08 00:52:06;;;;;;;0.10;0.10;;;3.10;99.90;1.80;96239.00;;;;5076914;28;20213;-73
2022/12/08 00:54:36;;;;;;;0.10;0.10;;;3.10;99.90;1.80;96231.00;;;;5076737;28;20777;-73
2022/12/08 00:57:04;;;;;;;0.10;0.10;;;3.10;99.90;1.80;96238.00;;;;5078113;28;20197;-76
2022/12/08 00:59:33;;;;;;;0.10;0.10;;;3.10;99.90;1.80;96234.00;;;;5076332;28;20246;-74
2022/12/08 01:02:01;;;;;;;0.10;0.10;;;3.10;99.90;1.80;96232.00;;;;5076678;28;20679;-73
2022/12/08 01:04:29;;;;;;;0.10;0.10;;;3.10;99.90;1.80;96239.00;;;;5073713;28;20292;-73
2022/12/08 01:06:57;;;;;;;0.10;0.10;;;3.20;99.90;1.80;96235.00;;;;5074010;28;20197;-72
2022/12/08 01:09:25;;;;;;;0.10;0.10;;;3.10;99.90;1.90;96253.00;;;;5073878;28;20185;-74
2022/12/08 01:11:54;;;;;;;0.10;0.10;;;3.20;99.90;1.90;96233.00;;;;5072649;28;20197;-74
2022/12/08 01:14:22;;;;;;;0.10;0.10;;;3.20;99.90;1.90;96229.00;;;;5074232;28;20243;-73
2022/12/08 01:16:51;;;;;;;0.10;0.10;;;3.20;99.90;1.90;96235.00;;;;5073476;28;20621;-73
2022/12/08 01:19:19;;;;;;;0.10;0.10;;;3.20;99.90;1.90;96232.00;;;;5073527;28;20798;-72
2022/12/08 01:21:47;;;;;;;0.10;0.10;;;3.20;99.90;1.90;96245.00;;;;5067725;28;20202;-72
2022/12/08 01:24:18;;;;;;;0.10;0.10;;;3.20;99.90;1.90;96232.00;;;;5054270;28;20709;-72
2022/12/08 01:26:47;;;;;;;0.10;0.10;;;3.30;99.90;1.90;96229.00;;;;5065067;28;20197;-72
2022/12/08 01:29:17;;;;;;;0.10;0.10;;;3.20;99.90;1.90;96221.00;;;;5073434;28;20666;-73
2022/12/08 01:31:45;;;;;;;0.10;0.10;;;3.30;99.90;2.00;96244.00;;;;5073376;28;20186;-74
2022/12/08 01:34:13;;;;;;;0.10;0.10;;;3.30;99.90;2.00;96233.00;;;;5073494;28;20218;-73
2022/12/08 01:36:43;;;;;;;0.10;0.10;;;3.30;99.90;1.90;96232.00;;;;5073245;28;20247;-73
2022/12/08 01:39:16;;;;;;;0.10;0.10;;;3.20;99.90;2.00;96256.00;;;;5072897;28;20186;-76
2022/12/08 01:41:46;;;;;;;0.10;0.10;;;3.30;99.90;1.90;96228.00;;;;5072818;28;20208;-75
2022/12/08 01:44:54;;;;;;;0.10;0.10;;;3.20;99.90;1.90;96219.00;;;;5073568;28;20300;-73
2022/12/08 01:47:29;;;;;;;0.10;0.10;;;3.20;99.90;1.80;96219.00;;;;5072429;28;20207;-73
2022/12/08 01:49:57;;;;;;;0.10;0.10;;;3.20;99.90;1.90;96234.00;;;;5073384;28;20193;-73
2022/12/08 01:52:32;;;;;;;0.10;0.10;;;3.20;99.90;1.80;96239.00;;;;5072614;28;20588;-75
2022/12/08 01:55:06;;;;;;;0.10;0.10;;;3.10;99.90;1.80;96214.00;;;;5063116;28;20624;-73
2022/12/08 01:57:41;;;;;;;0.10;0.10;;;3.10;99.90;1.90;96222.00;;;;5070615;28;20193;-72
2022/12/08 02:00:14;;;;;;;0.10;0.10;;;3.20;99.90;1.90;96229.00;;;;5073090;28;20208;-72
2022/12/08 02:02:54;;;;;;;0.10;0.10;;;3.20;99.90;1.90;96222.00;;;;5057046;28;20198;-73
2022/12/08 02:05:26;;;;;;;0.10;0.10;;;3.20;99.90;1.80;96220.00;;;;5060461;28;20682;-73
2022/12/08 02:07:57;;;;;;;0.10;0.10;;;3.10;99.90;1.50;95879.00;;;;5072603;28;20196;-73
2022/12/08 02:10:30;;;;;;;0.10;0.10;;;3.10;99.90;1.80;96230.00;;;;5072613;28;20198;-73
2022/12/08 02:13:00;;;;;;;0.10;0.10;;;3.10;99.90;1.70;96203.00;;;;5070952;28;20228;-74
2022/12/08 02:15:38;;;;;;;0.10;0.10;;;3.00;99.90;1.70;96198.00;;;;5072479;28;20255;-74
2022/12/08 02:18:25;;;;;;;0.10;0.10;;;3.00;99.90;1.70;96195.00;;;;5073999;28;20197;-73
2022/12/08 02:21:01;;;;;;;0.10;0.10;;;3.00;99.90;1.70;96196.00;;;;5075319;28;20209;-73
2022/12/08 02:23:44;;;;;;;0.10;0.10;;;3.00;99.90;1.40;95855.00;;;;5075738;28;20204;-74
2022/12/08 02:27:20;;;;;;;0.10;0.10;;;3.00;99.90;1.70;96185.00;;;;5073718;28;20205;-73
2022/12/08 02:30:07;;;;;;;0.10;0.10;;;3.00;99.90;1.60;96183.00;;;;5073941;28;20197;-74
2022/12/08 02:33:24;;;;;;;0.10;0.10;;;2.90;99.90;1.70;96199.00;;;;5074603;28;20224;-74
2022/12/08 02:35:59;;;;;;;0.10;0.10;;;3.00;99.90;1.60;96172.00;;;;5073730;28;20206;-74
2022/12/08 02:38:43;;;;;;;0.10;0.10;;;2.90;99.90;1.50;96172.00;;;;5064491;28;20194;-74
2022/12/08 02:41:27;;;;;;;0.10;0.10;;;2.90;99.90;1.60;96190.00;;;;5065897;28;20204;-74
2022/12/08 02:44:04;;;;;;;0.10;0.10;;;2.90;99.90;1.60;96176.00;;;;5072500;28;20198;-76
2022/12/08 02:46:38;;;;;;;0.10;0.10;;;2.90;99.90;1.60;96184.00;;;;5067751;28;20201;-74
2022/12/08 02:49:07;;;;;;;0.10;0.10;;;2.90;99.90;1.50;96170.00;;;;5071576;28;20748;-74
2022/12/08 02:51:37;;;;;;;0.10;0.10;;;2.90;99.90;1.60;96161.00;;;;5070410;28;20197;-73
2022/12/08 02:54:05;;;;;;;0.10;0.10;;;2.90;99.90;1.60;96163.00;;;;5071669;28;20229;-74
2022/12/08 02:57:08;;;;;;;0.10;0.10;;;2.90;99.90;1.50;96160.00;;;;5071686;28;20200;-73
2022/12/08 03:00:00;;;;;;;0.10;0.10;;;2.80;99.90;1.50;96152.00;;;;5070339;28;20213;-74
2022/12/08 03:02:48;;;;;;;0.10;0.10;;;2.80;99.90;1.50;96158.00;;;;5070696;28;20201;-75
2022/12/08 03:05:43;;;;;;;0.10;0.10;;;2.80;99.90;1.60;96165.00;;;;5071279;28;20282;-76
2022/12/08 03:08:21;;;;;;;0.10;0.10;;;2.90;99.90;1.60;96159.00;;;;5072159;28;20612;-74
2022/12/08 03:11:00;;;;;;;0.10;0.10;;;3.00;99.90;1.60;96156.00;;;;5071347;28;20200;-74
2022/12/08 03:13:38;;;;;;;0.10;0.10;;;2.90;99.90;1.60;96149.00;;;;5070838;28;20206;-74
2022/12/08 03:16:11;;;;;;;0.10;0.10;;;2.90;99.90;1.60;96146.00;;;;5071837;28;20250;-75
2022/12/08 03:18:45;;;;;;;0.10;0.10;;;3.00;99.90;1.60;96142.00;;;;5070902;28;20303;-75
2022/12/08 03:21:15;;;;;;;0.10;0.10;;;2.90;99.90;1.60;96141.00;;;;5071063;28;20215;-75
2022/12/08 03:23:50;;;;;;;0.10;0.10;;;2.90;99.90;1.60;96140.00;;;;5071211;28;20208;-74
2022/12/08 03:26:24;;;;;;;0.20;0.20;;;2.90;99.90;1.60;96127.00;;;;5071291;28;20225;-73
2022/12/08 03:28:53;;;;;;;0.10;0.10;;;3.00;99.90;1.60;96135.00;;;;5070380;28;20204;-73
2022/12/08 03:31:25;;;;;;;0.10;0.10;;;2.90;99.90;1.60;96124.00;;;;5070738;28;20750;-75
2022/12/08 03:33:58;;;;;;;0.10;0.10;;;2.90;99.90;1.60;96126.00;;;;5071687;28;20635;-74
2022/12/08 03:36:26;;;;;;;0.20;0.20;;;2.90;99.90;1.60;96115.00;;;;5070994;28;20605;-74
2022/12/08 03:38:56;;;;;;;0.10;0.10;;;2.90;99.90;1.60;96135.00;;;;5070976;28;20553;-74
2022/12/08 03:41:24;;;;;;;0.10;0.10;;;2.90;99.90;1.60;96120.00;;;;5070637;28;20263;-74
2022/12/08 03:43:54;;;;;;;0.10;0.10;;;2.90;99.90;1.60;96116.00;;;;5071408;28;20322;-75
2022/12/08 03:46:25;;;;;;;0.10;0.10;;;2.90;99.90;1.60;96130.00;;;;5070771;28;20247;-75
2022/12/08 03:48:53;;;;;;;0.10;0.10;;;2.90;99.90;1.60;96145.00;;;;5070983;28;20194;-74
2022/12/08 03:51:23;;;;;;;0.10;0.10;;;2.90;99.90;1.60;96124.00;;;;5071026;28;20684;-73
2022/12/08 03:53:51;;;;;;;0.10;0.10;;;2.90;99.90;1.60;96120.00;;;;5067025;28;20213;-73
2022/12/08 03:56:25;;;;;;;0.10;0.10;;;2.90;99.90;1.70;96123.00;;;;5070834;28;20195;-72
2022/12/08 03:58:54;;;;;;;0.10;0.10;;;3.00;99.90;1.70;96121.00;;;;5070397;28;20200;-73
2022/12/08 04:01:23;;;;;;;0.10;0.10;;;3.00;99.90;1.60;96110.00;;;;5067360;28;20228;-74
2022/12/08 04:03:51;;;;;;;0.10;0.10;;;2.90;99.90;1.60;96098.00;;;;5071261;28;20204;-73
2022/12/08 04:06:21;;;;;;;0.10;0.10;;;2.90;99.90;1.60;96100.00;;;;5071047;28;20194;-73
2022/12/08 04:08:50;;;;;;;0.10;0.10;;;3.00;99.90;1.70;96111.00;;;;5070741;28;20220;-73
2022/12/08 04:11:21;;;;;;;0.10;0.10;;;3.00;99.90;1.70;96095.00;;;;5070933;28;20216;-73
2022/12/08 04:13:49;;;;;;;0.10;0.10;;;3.00;99.90;1.70;96116.00;;;;5070760;28;20213;-73
2022/12/08 04:16:21;;;;;;;0.10;0.10;;;3.00;99.90;1.70;96103.00;;;;5058413;28;20194;-73
2022/12/08 04:18:50;;;;;;;0.10;0.10;;;3.00;99.90;1.70;96103.00;;;;5071074;28;20688;-72
2022/12/08 04:21:18;;;;;;;0.10;0.10;;;3.00;99.90;1.70;96107.00;;;;5070892;28;20186;-72
2022/12/08 04:23:47;;;;;;;0.10;0.10;;;3.10;99.90;1.80;96102.00;;;;5070981;28;20727;-72
2022/12/08 04:26:15;;;;;;;0.10;0.10;;;3.10;99.90;1.70;96109.00;;;;5070735;28;20190;-74
2022/12/08 04:28:45;;;;;;;0.10;0.10;;;3.10;99.90;1.70;96051.00;;;;5071232;28;20209;-73
2022/12/08 04:31:13;;;;;;;0.10;0.10;;;3.10;99.90;1.70;96100.00;;;;5070460;28;20201;-74
2022/12/08 04:33:42;;;;;;;0.10;0.10;;;3.00;99.90;1.70;96103.00;;;;5070515;28;20201;-74
2022/12/08 04:36:10;;;;;;;0.10;0.10;;;3.10;99.90;1.80;96095.00;;;;5070790;28;20330;-73
2022/12/08 04:38:38;;;;;;;0.10;0.10;;;3.10;99.90;1.80;96088.00;;;;5071455;28;20197;-73
2022/12/08 04:41:06;;;;;;;0.10;0.10;;;3.10;99.90;1.80;96074.00;;;;5073803;28;20664;-73
2022/12/08 04:43:35;;;;;;;0.10;0.10;;;3.10;99.90;1.70;96102.00;;;;5074447;28;20556;-74
2022/12/08 04:46:08;;;;;;;0.10;0.10;;;3.00;99.90;1.70;96091.00;;;;5067737;28;20557;-74
2022/12/08 04:48:39;;;;;;;0.10;0.10;;;3.10;99.90;1.70;96110.00;;;;5073908;28;20669;-74
2022/12/08 04:51:15;;;;;;;0.10;0.10;;;3.10;99.90;1.80;96084.00;;;;5073634;28;20193;-74
2022/12/08 04:53:43;;;;;;;0.10;0.10;;;3.10;99.90;1.90;96083.00;;;;5069227;28;20201;-73
2022/12/08 04:56:16;;;;;;;0.10;0.10;;;3.20;99.90;1.80;96081.00;;;;5074040;28;20193;-74
2022/12/08 04:58:44;;;;;;;0.10;0.10;;;3.10;99.90;1.80;96087.00;;;;5073699;28;20197;-73
2022/12/08 05:01:14;;;;;;;0.10;0.10;;;3.20;99.90;1.80;96095.00;;;;5073899;28;20186;-74
2022/12/08 05:03:42;;;;;;;0.10;0.10;;;3.10;99.90;1.90;96082.00;;;;5058413;28;20194;-73
2022/12/08 05:06:12;;;;;;;0.10;0.10;;;3.20;99.90;1.80;96084.00;;;;5068726;28;20194;-73
2022/12/08 05:08:41;;;;;;;0.10;0.10;;;3.10;99.90;1.80;96030.00;;;;5073804;28;20200;-73
2022/12/08 05:11:11;;;;;;;0.10;0.10;;;3.10;99.90;1.80;96096.00;;;;5073624;28;20247;-74
2022/12/08 05:13:40;;;;;;;0.10;0.10;;;3.10;99.90;1.80;96095.00;;;;5073720;28;20201;-73
2022/12/08 05:16:11;;;;;;;0.10;0.10;;;3.10;99.90;1.80;96088.00;;;;5073095;28;20221;-72
2022/12/08 05:18:42;;;;;;;0.10;0.10;;;3.10;99.90;1.80;96076.00;;;;5053106;28;20198;-72
2022/12/08 05:21:10;;;;;;;0.10;0.10;;;3.10;99.90;1.80;96080.00;;;;5068260;28;20592;-72
2022/12/08 05:23:39;;;;;;;0.10;0.10;;;3.10;99.90;1.80;96072.00;;;;5067298;28;20198;-74
2022/12/08 05:26:08;;;;;;;0.10;0.10;;;3.20;99.90;1.80;96089.00;;;;5071439;28;20193;-71
2022/12/08 05:28:37;;;;;;;0.10;0.10;;;3.10;99.90;1.80;96095.00;;;;5069678;28;20223;-73
2022/12/08 05:31:10;;;;;;;0.10;0.10;;;3.20;99.90;1.90;96091.00;;;;5072461;28;20201;-72
2022/12/08 05:33:41;;;;;;;0.10;0.10;;;3.20;99.90;1.90;96087.00;;;;5073315;28;20205;-71
2022/12/08 05:36:11;;;;;;;0.10;0.10;;;3.20;99.90;1.80;96092.00;;;;5073007;28;20239;-72
2022/12/08 05:38:40;;;;;;;0.10;0.10;;;3.10;99.90;1.80;96078.00;;;;5072505;28;20587;-72
2022/12/08 05:41:10;;;;;;;0.10;0.10;;;3.10;99.90;1.80;96082.00;;;;5071245;28;20190;-73
2022/12/08 05:43:38;;;;;;;0.10;0.10;;;3.10;99.90;1.80;96079.00;;;;5072411;28;20221;-72
2022/12/08 05:46:08;;;;;;;0.10;0.10;;;3.10;99.90;1.80;96073.00;;;;5067233;28;20194;-72
2022/12/08 05:48:36;;;;;;;0.10;0.10;;;3.10;99.90;1.80;96075.00;;;;5070935;28;20233;-72
2022/12/08 05:51:18;;;;;;;0.10;0.10;;;3.10;99.90;1.60;95704.00;;;;5071549;28;20198;-73
2022/12/08 05:53:48;;;;;;;0.10;0.10;;;3.10;99.90;1.90;95992.00;;;;5069582;28;20198;-74
2022/12/08 05:56:17;;;;;;;0.10;0.10;;;3.20;99.90;1.80;96075.00;;;;5074439;28;20692;-74
2022/12/08 05:58:46;;;;;;;0.10;0.10;;;3.20;99.90;1.80;96062.00;;;;5074814;28;20232;-73
2022/12/08 06:01:23;;;;;;;0.10;0.10;;;3.20;99.90;1.80;96071.00;;;;5080670;28;20248;-74
2022/12/08 06:03:52;;;;;;;0.10;0.10;;;3.20;99.90;1.80;96069.00;;;;5065577;28;20607;-73
2022/12/08 06:06:22;;;;;;;0.10;0.10;;;3.20;99.90;1.80;96071.00;;;;5062090;28;20255;-72
2022/12/08 06:08:51;;;;;;;0.10;0.10;;;3.20;99.90;1.90;96071.00;;;;5062646;28;20533;-74
2022/12/08 06:11:22;;;;;;;0.10;0.10;;;3.20;99.90;1.80;96061.00;;;;5063991;28;20248;-72
2022/12/08 06:13:52;;;;;;;0.10;0.10;;;3.20;99.90;1.90;96074.00;;;;5068364;28;20305;-75
2022/12/08 06:16:21;;;;;;;0.10;0.10;;;3.20;99.90;1.90;96068.00;;;;5071890;28;20225;-74
2022/12/08 06:18:50;;;;;;;0.10;0.10;;;3.20;99.90;1.80;96064.00;;;;5070231;28;20219;-73
2022/12/08 06:21:19;;;;;;;0.10;0.10;;;3.10;99.90;1.80;96068.00;;;;5071902;28;20190;-72
2022/12/08 06:23:51;;;;;;;0.10;0.10;;;3.10;99.90;1.70;96065.00;;;;5072163;28;20529;-71
2022/12/08 06:26:20;;;;;;;0.10;0.10;;;3.10;99.90;1.80;96075.00;;;;5071716;28;20197;-74
2022/12/08 06:28:50;;;;;;;0.10;0.10;;;3.10;99.90;1.80;96062.00;;;;5070863;28;20609;-73
2022/12/08 06:31:21;;;;;;;0.10;0.10;;;3.10;99.90;1.80;96068.00;;;;5070647;28;20182;-72
2022/12/08 06:33:50;;;;;;;0.10;0.10;;;3.10;99.90;1.80;96057.00;;;;5071864;28;20226;-72
2022/12/08 06:36:21;;;;;;;0.10;0.10;;;3.10;99.90;1.70;96070.00;;;;5072260;28;20701;-72
2022/12/08 06:38:54;;;;;;;0.10;0.10;;;3.10;99.90;1.70;96060.00;;;;5071526;28;20205;-71
2022/12/08 06:41:22;;;;;;;0.10;0.10;;;3.10;99.90;1.80;96078.00;;;;5070389;28;20240;-72
2022/12/08 06:43:50;;;;;;;0.10;0.10;;;3.10;99.90;1.80;96075.00;;;;5071227;28;20529;-71
2022/12/08 06:46:20;;;;;;;0.10;0.10;;;3.10;99.90;1.80;95993.00;;;;5071715;28;20202;-72
2022/12/08 06:48:49;;;;;;;0.10;0.10;;;3.10;99.90;1.80;96079.00;;;;5071091;28;20232;-73
2022/12/08 06:51:21;;;;;;;0.10;0.10;;;3.10;99.90;1.80;96089.00;;;;5071151;28;20185;-74
2022/12/08 06:53:50;;;;;;;0.10;0.10;;;3.10;99.90;1.80;96077.00;;;;5071021;28;20661;-74
2022/12/08 06:56:21;;;;;;;0.10;0.10;;;3.10;99.90;1.80;96084.00;;;;5069772;28;20287;-73
2022/12/08 06:58:49;;;;;;;0.10;0.10;;;3.10;99.90;1.80;96087.00;;;;5070935;28;20231;-73
2022/12/08 07:01:20;;;;;;;0.10;0.10;;;3.10;99.90;1.50;96098.00;;;;5066642;28;20265;-73
2022/12/08 07:03:48;;;;;;;0.10;0.10;;;3.10;99.90;1.80;96098.00;;;;5070605;28;20190;-74
2022/12/08 07:06:22;;;;;;;0.10;0.10;;;3.10;99.90;1.80;96091.00;;;;5071968;28;20201;-74
2022/12/08 07:08:50;;;;;;;0.10;0.10;;;3.10;99.90;1.80;96102.00;;;;5070892;28;20222;-74
2022/12/08 07:11:20;;;;;;;0.10;0.10;;;3.10;99.90;1.80;96098.00;;;;5069378;28;20223;-75
2022/12/08 07:13:50;;;;;;;0.10;0.10;;;3.10;99.90;1.70;96097.00;;;;5078762;28;20680;-75
2022/12/08 07:16:18;;;;;;;0.10;0.10;;;3.00;99.90;1.70;96014.00;;;;5071002;28;20255;-76
2022/12/08 07:18:47;;;;;;;0.10;0.10;;;3.00;99.90;1.70;96104.00;;;;5070666;28;20263;-76
2022/12/08 07:21:16;;;;;;;0.10;0.10;;;3.00;99.90;1.50;96101.00;;;;5070453;28;20186;-76
2022/12/08 07:23:47;;;;;;;0.10;0.10;;;3.00;99.90;1.80;96111.00;;;;5065642;28;20224;-76
2022/12/08 07:26:26;;;;;;;0.10;0.10;;;3.00;99.90;1.70;96107.00;;;;5070918;28;20442;-73
2022/12/08 07:28:54;;;;;;;0.10;0.10;;;3.00;99.90;1.70;96094.00;;;;5070559;28;20209;-73
2022/12/08 07:31:25;;;;;;;0.10;0.10;;;3.00;99.90;1.70;96116.00;;;;5070220;28;20200;-73
2022/12/08 07:33:54;;;;;;;0.10;0.10;;;3.00;99.90;1.70;96103.00;;;;5053802;28;20649;-74
2022/12/08 07:36:23;;;;;;;0.10;0.10;;;3.00;99.90;1.80;96101.00;;;;5070287;28;20286;-74
2022/12/08 07:38:53;;;;;;;0.10;0.10;;;3.10;99.90;1.70;96039.00;;;;5067698;28;20664;-74
2022/12/08 07:41:25;;;;;;;0.10;0.10;;;3.10;99.90;1.80;96091.00;;;;5066445;28;20201;-74
2022/12/08 07:43:55;;;;;;;0.10;0.10;;;3.10;99.90;1.80;96096.00;;;;5052531;28;20712;-73
2022/12/08 07:46:26;;;;;;;0.10;0.10;;;3.10;99.90;1.80;96109.00;;;;5067321;28;20599;-74
2022/12/08 07:48:55;;;;;;;0.10;0.10;;;3.10;99.90;1.80;96088.00;;;;5070351;28;20262;-74
2022/12/08 07:51:24;;;;;;;0.10;0.10;;;3.10;99.90;1.80;96023.00;;;;5070924;28;20202;-75
2022/12/08 07:53:53;;;;;;;0.10;0.10;;;3.10;99.90;1.80;96108.00;;;;5071276;28;20194;-73
2022/12/08 07:56:24;;;;;;;0.00;0.00;;;3.10;99.90;1.70;96080.00;;;;5071409;28;20229;-72
2022/12/08 07:58:52;;;;;;;0.10;0.10;;;3.10;99.90;1.80;96108.00;;;;5070298;28;20190;-73
2022/12/08 08:01:24;;;;;;;0.10;0.10;;;3.10;99.90;1.90;96081.00;;;;5070289;28;20193;-72
2022/12/08 08:03:54;;;;;;;0.10;0.10;;;3.20;99.90;1.90;96085.00;;;;5074785;28;20259;-71
2022/12/08 08:06:22;;;;;;;0.10;0.10;;;3.20;99.90;1.90;96107.00;;;;5070824;28;20597;-72
2022/12/08 08:08:51;;;;;;;0.10;0.10;;;3.20;99.90;1.90;96100.00;;;;5070895;28;20204;-72
2022/12/08 08:11:19;;;;;;;0.10;0.10;;;3.20;99.90;1.90;96108.00;;;;5071444;28;20197;-73
2022/12/08 08:13:51;;;;;;;0.10;0.10;;;3.20;99.90;1.90;96096.00;;;;5065535;28;20190;-73
2022/12/08 08:16:20;;;;;;;0.10;0.10;;;3.20;99.90;1.90;96087.00;;;;5076290;28;20221;-73
2022/12/08 08:18:50;;;;;;;0.10;0.10;;;3.20;99.90;1.90;96096.00;;;;5074420;28;20257;-73
2022/12/08 08:21:20;;;;;;;0.10;0.10;;;3.20;99.90;1.90;96115.00;;;;5082975;28;20264;-72
2022/12/08 08:24:09;;;;;;;0.10;0.10;;;3.20;99.90;1.90;96098.00;;;;5074786;28;20740;-73
2022/12/08 08:26:37;;;;;;;0.10;0.10;;;3.20;99.90;1.90;96101.00;;;;5075869;28;20190;-73
2022/12/08 08:29:06;;;;;;;0.10;0.10;;;3.20;99.90;1.90;96110.00;;;;5074696;28;20206;-73
2022/12/08 08:31:35;;;;;;;0.10;0.10;;;3.20;99.90;2.00;96104.00;;;;5073655;28;20236;-73
2022/12/08 08:34:05;;;;;;;0.10;0.10;;;3.20;99.90;2.00;96099.00;;;;5073972;28;20201;-73
2022/12/08 08:36:33;;;;;;;0.10;0.10;;;3.30;99.90;2.00;96102.00;;;;5073747;28;20723;-73
2022/12/08 08:39:01;;;;;;;0.10;0.10;;;3.30;99.90;2.00;96112.00;;;;5073913;28;20198;-72
2022/12/08 08:41:29;;;;;;;0.10;0.10;;;3.30;99.90;2.10;96128.00;;;;5072418;28;20251;-73
2022/12/08 08:43:57;;;;;;;0.10;0.10;;;3.40;99.90;2.10;96119.00;;;;5073817;28;20197;-73
2022/12/08 08:46:27;;;;;;;0.10;0.10;;;3.40;99.90;2.10;96102.00;;;;5075238;28;20205;-73
2022/12/08 08:48:55;;;;;;;0.10;0.10;;;3.40;99.90;2.00;96090.00;;;;5072467;28;20614;-71
2022/12/08 08:51:23;;;;;;;0.10;0.10;;;3.40;99.90;2.10;96094.00;;;;5074520;28;20243;-75
2022/12/08 08:53:52;;;;;;;0.10;0.10;;;3.40;99.90;2.10;96093.00;;;;5072907;28;20604;-73
2022/12/08 08:56:20;;;;;;;0.10;0.10;;;3.40;99.90;2.10;96114.00;;;;5073761;28;20212;-73
2022/12/08 08:58:49;;;;;;;0.10;0.10;;;3.40;99.90;2.10;96101.00;;;;5073066;28;20189;-73
2022/12/08 09:01:21;;;;;;;0.10;0.10;;;3.40;99.90;2.20;96117.00;;;;5072617;28;20200;-73
2022/12/08 09:03:51;;;;;;;0.10;0.10;;;3.40;99.90;2.20;96093.00;;;;5072729;28;20205;-73
2022/12/08 09:06:21;;;;;;;0.10;0.10;;;3.40;99.90;2.20;96043.00;;;;5072732;28;20202;-73
2022/12/08 09:08:50;;;;;;;0.10;0.10;;;3.40;99.90;2.20;96096.00;;;;5072395;28;20265;-73
2022/12/08 09:11:18;;;;;;;0.10;0.10;;;3.50;99.90;2.20;96079.00;;;;5067559;28;20239;-72
2022/12/08 09:13:48;;;;;;;0.10;0.10;;;3.50;99.90;2.30;96047.00;;;;5072147;28;20197;-72
2022/12/08 09:16:18;;;;;;;0.10;0.10;;;3.60;99.90;2.30;96084.00;;;;5075664;28;20689;-72
2022/12/08 09:18:48;;;;;;;0.10;0.10;;;3.60;99.90;2.30;96086.00;;;;5073706;28;20310;-72
2022/12/08 09:21:21;;;;;;;0.05;0.05;;;3.60;99.90;2.30;96066.00;;;;5073554;28;20216;-74
2022/12/08 09:23:50;;;;;;;0.10;0.10;;;3.60;99.90;2.30;96078.00;;;;5073270;28;20193;-73
2022/12/08 09:26:21;;;;;;;0.10;0.10;;;3.60;99.90;2.30;96075.00;;;;5072099;28;20186;-73
2022/12/08 09:28:49;;;;;;;0.10;0.10;;;3.60;99.90;2.30;96067.00;;;;5072616;28;20213;-73
2022/12/08 09:31:20;;;;;;;0.10;0.10;;;3.60;99.90;2.30;96077.00;;;;5071308;28;20621;-72
2022/12/08 09:33:50;;;;;;;0.10;0.10;;;3.60;99.90;2.40;96001.00;;;;5072589;28;20194;-73
2022/12/08 09:36:21;;;;;;;0.10;0.10;;;3.60;99.90;2.40;96066.00;;;;5068942;28;20268;-73
2022/12/08 09:38:52;;;;;;;0.10;0.10;;;3.70;99.90;2.30;95980.00;;;;5052939;28;20252;-72
2022/12/08 09:41:31;;;;;;;0.10;0.10;;;3.70;99.90;2.40;96062.00;;;;5067566;28;20206;-72
2022/12/08 09:44:38;;;;;;;0.10;0.10;;;3.70;99.90;2.40;96068.00;;;;5068753;28;20218;-73
2022/12/08 09:47:18;;;;;;;0.10;0.10;;;3.70;99.90;2.40;96063.00;;;;5072415;28;20676;-72
2022/12/08 09:49:56;;;;;;;0.10;0.10;;;3.70;99.90;2.40;96070.00;;;;5072391;28;20201;-74
2022/12/08 09:52:33;;;;;;;0.10;0.10;;;3.70;99.90;2.50;96074.00;;;;5072142;28;20201;-73
2022/12/08 09:55:12;;;;;;;0.10;0.10;;;3.70;99.90;2.50;96054.00;;;;5069378;28;20217;-73
2022/12/08 09:57:40;;;;;;;0.10;0.10;;;3.70;99.90;2.50;96058.00;;;;5071300;28;20259;-73
2022/12/08 10:00:14;;;;;;;0.10;0.10;;;3.70;99.90;2.50;96060.00;;;;5071243;28;20190;-73
2022/12/08 10:02:44;;;;;;;0.10;0.10;;;3.80;99.90;2.50;96085.00;;;;5071662;28;20201;-73
2022/12/08 10:05:14;;;;;;;0.10;0.10;;;3.70;99.90;2.40;96055.00;;;;5072020;28;20590;-73
2022/12/08 10:07:48;;;;;;;0.10;0.10;;;3.70;99.90;2.40;96053.00;;;;5071150;28;20190;-72
2022/12/08 10:10:30;;;;;;;0.10;0.10;;;3.70;99.90;2.40;96056.00;;;;5062533;28;20263;-76
2022/12/08 10:13:11;;;;;;;0.10;0.10;;;3.70;99.90;2.40;96051.00;;;;5069926;28;20189;-73
2022/12/08 10:15:47;;;;;;;0.10;0.10;;;3.70;99.90;2.30;96045.00;;;;5076943;28;20229;-74
2022/12/08 10:18:20;;;;;;;0.10;0.10;;;3.60;99.90;2.30;96007.00;;;;5058117;28;20225;-74
2022/12/08 10:20:51;;;;;;;0.10;0.10;;;3.60;99.90;2.20;96038.00;;;;5071705;28;20930;-73
2022/12/08 10:23:30;;;;;;;0.10;0.10;;;3.50;99.90;2.20;96033.00;;;;5072467;28;20197;-75
2022/12/08 10:26:03;;;;;;;0.10;0.10;;;3.50;99.90;2.20;96043.00;;;;5069929;28;20829;-74
2022/12/08 10:28:33;;;;;;;0.10;0.10;;;3.50;99.90;2.30;96065.00;;;;5071422;28;20213;-74
2022/12/08 10:31:06;;;;;;;0.10;0.10;;;3.50;99.90;2.20;96048.00;;;;5070807;28;20193;-74
2022/12/08 10:33:34;;;;;;;0.08;0.08;;;3.50;99.90;2.20;96041.00;;;;5072181;28;20198;-74
2022/12/08 10:36:03;;;;;;;0.10;0.10;;;3.50;99.90;2.20;96024.00;;;;5070563;28;20773;-73
2022/12/08 10:38:35;;;;;;;0.10;0.10;;;3.50;99.90;2.10;96036.00;;;;5071685;28;20217;-74
2022/12/08 10:41:11;;;;;;;0.10;0.10;;;3.40;99.90;2.10;96035.00;;;;5071347;28;20190;-74
2022/12/08 10:43:46;;;;;;;0.10;0.10;;;3.40;99.90;2.20;96028.00;;;;5071739;28;20201;-74
2022/12/08 10:46:18;;;;;;;0.10;0.10;;;3.40;99.90;2.10;96033.00;;;;5071451;28;20196;-73
2022/12/08 10:48:53;;;;;;;0.10;0.10;;;3.40;99.90;2.10;96033.00;;;;5071640;28;20209;-75
2022/12/08 10:51:26;;;;;;;0.00;0.00;;;3.40;99.90;2.10;96026.00;;;;5072238;28;20197;-73
2022/12/08 10:53:56;;;;;;;0.10;0.10;;;3.40;99.90;2.20;96020.00;;;;5072002;28;20235;-73
2022/12/08 10:56:28;;;;;;;0.10;0.10;;;3.50;99.90;2.20;96018.00;;;;5071638;28;20218;-73
2022/12/08 10:59:14;;;;;;;0.10;0.10;;;3.40;99.90;2.20;96024.00;;;;5072720;28;20210;-73
2022/12/08 11:01:46;;;;;;;0.10;0.10;;;3.40;99.90;2.00;96004.00;;;;5072595;28;20606;-73
2022/12/08 11:04:19;;;;;;;0.10;0.10;;;3.40;99.90;2.00;96017.00;;;;5067109;28;20206;-73
2022/12/08 11:06:50;;;;;;;0.10;0.10;;;3.40;99.90;2.10;96015.00;;;;5071831;28;20732;-74
2022/12/08 11:09:42;;;;;;;0.10;0.10;;;3.40;99.90;2.10;96020.00;;;;5072424;28;20193;-74
2022/12/08 11:12:15;;;;;;;0.10;0.10;;;3.40;99.90;2.10;95956.00;;;;5069913;28;20263;-73
2022/12/08 11:14:51;;;;;;;0.10;0.10;;;3.40;99.90;2.00;96021.00;;;;5068980;28;20239;-73
2022/12/08 11:17:27;;;;;;;0.10;0.10;;;3.30;99.90;2.00;95999.00;;;;5064480;28;20217;-73
2022/12/08 11:19:58;;;;;;;0.10;0.10;;;3.30;99.90;2.00;96012.00;;;;5067345;28;20536;-73
2022/12/08 11:22:31;;;;;;;0.10;0.10;;;3.30;99.90;2.10;95997.00;;;;5062560;28;20198;-74
2022/12/08 11:25:10;;;;;;;0.10;0.10;;;3.30;99.90;2.10;95992.00;;;;5069408;28;20214;-73
2022/12/08 11:27:43;;;;;;;0.10;0.10;;;3.40;99.90;2.10;96009.00;;;;5063194;28;20205;-74
2022/12/08 11:30:16;;;;;;;0.10;0.10;;;3.40;99.90;2.10;95997.00;;;;5066952;28;20198;-74
2022/12/08 11:32:48;;;;;;;0.10;0.10;;;3.40;99.90;2.20;95984.00;;;;5059225;28;20228;-73
2022/12/08 11:35:25;;;;;;;0.10;0.10;;;3.40;99.90;2.20;96000.00;;;;5070286;28;20275;-73